Time;durP1;ratioP1;P1;durP2;ratioP2;P2;SDS_P1;SDS_P2;PMS_P1;PMS_P2;Temp;Humidity;BMP_temperature;BMP_pressure;BME280_temperature;BME280_humidity;BME280_pressure;Samples;Min_cycle;Max_cycle;Signal;HPM_P1;HPM_P2
2022/07/22 00:00:55;;;;;;;6.35;3.40;;;18.80;75.70;;;;;;4651285;30;20122;-82
2022/07/22 00:03:21;;;;;;;5.93;3.08;;;21.60;76.60;;;;;;4651796;30;20053;-83
2022/07/22 00:06:06;;;;;;;;;;;;;;;;;;;;;
2022/07/22 00:08:35;;;;;;;8.15;3.28;;;20.40;77.40;;;;;;4650942;30;20506;-83
2022/07/22 00:11:16;;;;;;;5.07;2.70;;;20.30;78.90;;;;;;4665750;30;20555;-82
2022/07/22 00:13:42;;;;;;;6.63;3.35;;;20.20;79.70;;;;;;4704262;24;20686;-83
2022/07/22 00:16:14;;;;;;;5.90;2.97;;;20.10;78.50;;;;;;4675234;24;20058;-82
2022/07/22 00:18:40;;;;;;;5.93;2.78;;;20.10;80.60;;;;;;4668611;30;20053;-81
2022/07/22 00:21:15;;;;;;;7.95;3.17;;;20.10;80.40;;;;;;4667640;30;20100;-82
2022/07/22 00:24:02;;;;;;;7.30;3.15;;;;;;;;;;4666754;30;20122;-80
2022/07/22 00:26:32;;;;;;;5.60;2.92;;;20.00;80.90;;;;;;5053867;24;20549;-82
2022/07/22 00:29:03;;;;;;;9.93;3.22;;;19.90;81.00;;;;;;4666269;30;20153;-81
2022/07/22 00:31:30;;;;;;;5.95;2.75;;;20.00;81.40;;;;;;4666364;30;20051;-83
2022/07/22 00:33:56;;;;;;;7.50;3.25;;;20.00;81.90;;;;;;4665880;30;20077;-81
2022/07/22 00:42:13;;;;;;;9.82;3.15;;;20.30;83.00;;;;;;4668080;30;20522;-83
2022/07/22 00:44:39;;;;;;;7.20;3.30;;;;;;;;;;4671099;30;20406;-83
2022/07/22 00:47:17;;;;;;;8.02;3.30;;;19.80;83.50;;;;;;4669213;30;20500;-82
2022/07/22 00:50:02;;;;;;;7.15;3.20;;;19.70;85.00;;;;;;4670683;30;20060;-81
2022/07/22 00:52:46;;;;;;;6.43;3.05;;;19.60;84.80;;;;;;4669180;30;20259;-83
2022/07/22 00:55:36;;;;;;;6.60;3.17;;;19.70;83.90;;;;;;4673545;24;20049;-82
2022/07/22 00:58:14;;;;;;;5.68;3.17;;;20.40;84.70;;;;;;4669044;30;20563;-80
2022/07/22 01:00:40;;;;;;;7.18;2.90;;;19.60;86.30;;;;;;4669041;30;20041;-82
2022/07/22 01:06:19;;;;;;;6.68;3.83;;;20.70;87.00;;;;;;4727498;24;20061;-82
2022/07/22 01:08:56;;;;;;;8.73;3.40;;;19.60;86.20;;;;;;4669369;30;20228;-81
2022/07/22 01:12:11;;;;;;;6.22;3.05;;;19.50;86.80;;;;;;4670222;30;20056;-83
2022/07/22 01:17:39;;;;;;;7.35;2.80;;;20.80;88.20;;;;;;4616337;30;20404;-82
2022/07/22 01:20:26;;;;;;;6.75;3.05;;;19.40;87.40;;;;;;4599639;31;20044;-82
2022/07/22 01:23:18;;;;;;;7.28;3.13;;;19.70;88.00;;;;;;4599530;31;20780;-81
2022/07/22 01:25:44;;;;;;;6.88;3.38;;;;;;;;;;4599636;31;20043;-82
2022/07/22 01:28:30;;;;;;;6.18;3.20;;;19.30;88.20;;;;;;4599828;31;20571;-83
2022/07/22 01:30:56;;;;;;;5.53;3.05;;;;;;;;;;4598841;31;20048;-81
2022/07/22 01:33:38;;;;;;;6.43;3.22;;;19.30;89.10;;;;;;4599545;31;20682;-82
2022/07/22 01:36:25;;;;;;;10.00;3.78;;;19.20;89.40;;;;;;4599297;31;20877;-81
2022/07/22 01:38:56;;;;;;;6.63;3.33;;;19.70;90.70;;;;;;4599016;31;20070;-80
2022/07/22 01:41:22;;;;;;;5.82;2.53;;;19.10;90.00;;;;;;4599044;31;20130;-81
2022/07/22 01:44:19;;;;;;;5.72;3.03;;;19.10;90.20;;;;;;4695849;24;20645;-82
2022/07/22 01:47:22;;;;;;;9.38;3.28;;;19.10;90.30;;;;;;4685608;30;20041;-81
2022/07/22 01:50:14;;;;;;;7.32;3.25;;;19.60;90.70;;;;;;4685461;30;20042;-82
2022/07/22 01:52:43;;;;;;;5.40;2.67;;;19.00;90.60;;;;;;4632677;30;20379;-82
2022/07/22 01:55:09;;;;;;;10.43;3.58;;;19.20;92.00;;;;;;4631926;30;20406;-82
2022/07/22 01:57:53;;;;;;;8.10;3.53;;;18.90;91.00;;;;;;4618068;30;20141;-82
2022/07/22 02:00:20;;;;;;;7.00;3.05;;;18.80;91.70;;;;;;4632844;30;20042;-82
2022/07/22 02:03:03;;;;;;;8.88;3.40;;;18.90;91.20;;;;;;4632544;30;20082;-82
2022/07/22 02:05:29;;;;;;;6.00;2.63;;;18.80;92.10;;;;;;4618289;30;20559;-82
2022/07/22 02:08:06;;;;;;;7.93;3.67;;;18.80;91.30;;;;;;4618239;30;20043;-81
2022/07/22 02:10:32;;;;;;;7.75;3.28;;;18.80;91.50;;;;;;4618506;30;20049;-83
2022/07/22 02:12:59;;;;;;;12.40;3.17;;;18.80;91.50;;;;;;4618206;30;20074;-84
2022/07/22 02:15:28;;;;;;;6.97;3.03;;;18.70;91.80;;;;;;4632285;30;20050;-81
2022/07/22 02:17:55;;;;;;;7.28;3.03;;;18.70;91.90;;;;;;4662447;24;20061;-82
2022/07/22 02:20:21;;;;;;;6.18;3.33;;;18.70;92.00;;;;;;4667889;30;20042;-85
2022/07/22 02:22:49;;;;;;;5.53;2.70;;;18.60;92.10;;;;;;4668098;30;20049;-84
2022/07/22 02:25:15;;;;;;;5.72;2.83;;;18.60;92.20;;;;;;4667611;30;20366;-81
2022/07/22 02:27:41;;;;;;;6.10;3.38;;;18.60;92.30;;;;;;4669439;30;20042;-81
2022/07/22 02:30:08;;;;;;;6.35;3.08;;;18.50;92.50;;;;;;4668024;30;20674;-83
2022/07/22 02:32:34;;;;;;;6.03;2.83;;;18.60;92.50;;;;;;4667677;30;20136;-83
2022/07/22 02:35:00;;;;;;;7.63;3.72;;;18.50;92.60;;;;;;4668819;30;20537;-83
2022/07/22 02:37:27;;;;;;;6.18;3.00;;;18.50;92.70;;;;;;4668832;30;20610;-83
2022/07/22 02:39:52;;;;;;;7.32;3.30;;;18.50;92.60;;;;;;4669054;30;20080;-81
2022/07/22 02:42:19;;;;;;;6.97;3.15;;;18.50;92.70;;;;;;4667583;30;20355;-82
2022/07/22 02:44:44;;;;;;;7.10;3.28;;;18.50;92.70;;;;;;4669035;30;20070;-82
2022/07/22 02:47:13;;;;;;;6.68;2.70;;;18.40;92.70;;;;;;4667451;30;20295;-81
2022/07/22 02:49:39;;;;;;;5.70;3.05;;;18.40;93.20;;;;;;4667727;30;20065;-83
2022/07/22 02:52:05;;;;;;;7.60;3.25;;;18.30;93.10;;;;;;4668234;30;20065;-82
2022/07/22 02:54:31;;;;;;;8.88;3.63;;;18.30;93.20;;;;;;4667985;30;20185;-82
2022/07/22 02:56:57;;;;;;;7.75;3.67;;;18.30;93.10;;;;;;4667692;30;20547;-82
2022/07/22 02:59:22;;;;;;;6.78;3.05;;;18.30;93.20;;;;;;4667700;30;20567;-82
2022/07/22 03:02:03;;;;;;;9.07;3.20;;;18.20;93.30;;;;;;4668765;30;20070;-82
2022/07/22 03:07:17;;;;;;;7.53;3.17;;;18.30;93.40;;;;;;4668271;30;20056;-83
2022/07/22 03:09:59;;;;;;;7.63;3.15;;;18.10;94.50;;;;;;4666902;30;20046;-83
2022/07/22 03:12:47;;;;;;;9.50;3.83;;;15.40;94.50;;;;;;4666895;30;20160;-84
2022/07/22 03:15:13;;;;;;;8.30;3.50;;;18.10;94.30;;;;;;4666966;30;20046;-82
2022/07/22 03:17:40;;;;;;;7.50;3.20;;;18.10;93.90;;;;;;4667627;30;20206;-83
2022/07/22 03:20:11;;;;;;;4.72;2.78;;;18.00;93.90;;;;;;4668186;30;20121;-82
2022/07/22 03:22:37;;;;;;;10.18;3.75;;;18.00;94.10;;;;;;4664202;30;20041;-82
2022/07/22 03:25:04;;;;;;;6.13;2.95;;;18.00;94.10;;;;;;4666735;30;20072;-83
2022/07/22 03:27:30;;;;;;;5.97;3.33;;;18.00;94.30;;;;;;4668006;30;20125;-84
2022/07/22 03:29:55;;;;;;;6.15;3.42;;;17.90;94.30;;;;;;4666727;30;20145;-83
2022/07/22 03:32:21;;;;;;;7.40;3.60;;;17.90;94.40;;;;;;4669064;30;20045;-82
2022/07/22 03:34:47;;;;;;;8.07;3.75;;;17.80;94.50;;;;;;4670008;30;20030;-81
2022/07/22 03:37:14;;;;;;;6.40;2.97;;;17.80;94.70;;;;;;4710398;24;20072;-84
2022/07/22 03:39:40;;;;;;;8.95;3.75;;;17.70;94.70;;;;;;4667018;30;20046;-81
2022/07/22 03:42:24;;;;;;;7.78;3.30;;;19.10;94.90;;;;;;4817826;24;20072;-81
2022/07/22 03:48:10;;;;;;;5.43;3.03;;;17.60;95.00;;;;;;4651563;30;20057;-84
2022/07/22 03:51:09;;;;;;;6.93;2.83;;;17.60;95.20;;;;;;4651217;30;20686;-83
2022/07/22 03:53:55;;;;;;;6.95;3.95;;;17.60;95.00;;;;;;4650115;30;20629;-83
2022/07/22 03:56:21;;;;;;;7.18;3.85;;;19.40;95.40;;;;;;4651153;30;20047;-83
2022/07/22 03:58:47;;;;;;;8.10;3.17;;;17.60;95.00;;;;;;4650576;30;20389;-84
2022/07/22 04:01:16;;;;;;;8.40;4.07;;;17.60;95.00;;;;;;4650105;30;20248;-82
2022/07/22 04:03:42;;;;;;;8.50;4.22;;;17.90;95.20;;;;;;4649422;30;20535;-81
2022/07/22 04:06:08;;;;;;;12.27;3.80;;;17.60;95.30;;;;;;4649151;30;20226;-82
2022/07/22 04:08:34;;;;;;;9.27;3.50;;;17.50;95.20;;;;;;4650608;30;20038;-84
2022/07/22 04:11:15;;;;;;;7.93;3.80;;;17.50;95.20;;;;;;4648989;30;20074;-85
2022/07/22 04:13:47;;;;;;;7.03;3.53;;;16.60;95.10;;;;;;4648650;30;20045;-82
2022/07/22 04:16:16;;;;;;;7.35;3.47;;;17.50;95.90;;;;;;4649133;30;20062;-83
2022/07/22 04:21:27;;;;;;;7.80;3.60;;;17.40;95.70;;;;;;4801230;24;20054;-83
2022/07/22 04:23:56;;;;;;;7.32;3.50;;;17.50;95.50;;;;;;4671081;30;20445;-83
2022/07/22 04:26:22;;;;;;;7.57;3.90;;;17.40;95.90;;;;;;4667842;30;20066;-82
2022/07/22 04:28:48;;;;;;;6.32;3.30;;;17.50;95.70;;;;;;4669932;30;20038;-83
2022/07/22 04:31:14;;;;;;;7.63;3.55;;;17.50;95.60;;;;;;4671064;30;20341;-81
2022/07/22 04:33:43;;;;;;;12.40;4.50;;;17.50;95.80;;;;;;4670904;30;20853;-82
2022/07/22 04:36:09;;;;;;;8.80;3.55;;;17.50;95.60;;;;;;4669731;30;20375;-83
2022/07/22 04:38:35;;;;;;;5.78;3.33;;;17.60;95.60;;;;;;4669321;30;20529;-83
2022/07/22 04:41:03;;;;;;;8.10;3.65;;;17.70;95.40;;;;;;4670866;30;20605;-82
2022/07/22 04:43:46;;;;;;;6.70;3.17;;;17.80;95.30;;;;;;4671047;30;20259;-81
2022/07/22 04:46:15;;;;;;;8.10;3.42;;;19.20;95.90;;;;;;4668861;30;20077;-82
2022/07/22 04:49:38;;;;;;;5.78;2.95;;;18.00;94.60;;;;;;4669100;30;20254;-82
2022/07/22 04:52:24;;;;;;;8.57;3.13;;;17.70;94.70;;;;;;4616448;31;20044;-83
2022/07/22 04:54:50;;;;;;;8.45;4.03;;;19.60;94.80;;;;;;4602589;31;20047;-83
2022/07/22 05:01:01;;;;;;;8.05;3.92;;;18.50;93.80;;;;;;4616837;31;20138;-83
2022/07/22 05:04:02;;;;;;;;;;;;;;;;;;;;;
2022/07/22 05:07:16;;;;;;;16.83;6.82;;;18.60;94.40;;;;;;4616540;31;20246;-83
2022/07/22 05:09:41;;;;;;;14.15;6.00;;;19.90;94.10;;;;;;4616310;31;20512;-83
2022/07/22 05:12:29;;;;;;;12.45;5.15;;;18.90;93.60;;;;;;4616122;31;20321;-83
2022/07/22 05:15:32;;;;;;;;;;;;;;;;;;;;;
2022/07/22 05:18:01;;;;;;;9.30;3.80;;;19.00;93.10;;;;;;4615927;30;20257;-83
2022/07/22 05:20:27;;;;;;;7.55;4.15;;;19.10;93.20;;;;;;4614860;30;20179;-83
2022/07/22 05:22:56;;;;;;;7.90;3.85;;;19.20;92.80;;;;;;4615423;31;20334;-83
2022/07/22 05:25:33;;;;;;;7.95;3.75;;;19.30;92.80;;;;;;4615751;31;20276;-82
2022/07/22 05:28:05;;;;;;;9.13;4.13;;;19.40;92.60;;;;;;4664619;24;20082;-83
2022/07/22 05:30:35;;;;;;;8.23;4.05;;;19.50;92.60;;;;;;4668213;30;20718;-82
2022/07/22 05:33:18;;;;;;;8.27;4.18;;;19.60;92.20;;;;;;4691152;24;20089;-81
2022/07/22 05:38:20;;;;;;;8.45;4.15;;;19.80;92.10;;;;;;3843786;28;20064;-83
2022/07/22 05:40:46;;;;;;;10.15;4.28;;;19.90;92.20;;;;;;4669719;30;20045;-82
2022/07/22 05:43:12;;;;;;;7.85;4.20;;;20.20;91.80;;;;;;4668670;30;20521;-82
2022/07/22 05:45:38;;;;;;;9.32;4.00;;;20.10;91.60;;;;;;4670029;30;20045;-82
2022/07/22 05:48:04;;;;;;;8.65;3.70;;;20.10;91.40;;;;;;4668321;30;20266;-81
2022/07/22 05:50:36;;;;;;;7.03;3.92;;;20.50;90.70;;;;;;4676375;24;20070;-82
2022/07/22 05:53:39;;;;;;;9.90;4.10;;;20.50;91.20;;;;;;4669657;30;20704;-81
2022/07/22 05:58:43;;;;;;;9.68;4.57;;;20.80;90.60;;;;;;4741264;24;20066;-82
2022/07/22 06:01:22;;;;;;;8.80;4.90;;;21.10;90.60;;;;;;4668158;30;20074;-82
2022/07/22 06:03:49;;;;;;;9.27;4.60;;;21.00;90.30;;;;;;4653874;30;20159;-83
2022/07/22 06:06:29;;;;;;;12.73;4.85;;;21.30;89.50;;;;;;4682965;24;20080;-82
2022/07/22 06:09:23;;;;;;;8.25;5.32;;;21.30;90.70;;;;;;4650161;30;20126;-82
2022/07/22 06:12:09;;;;;;;9.88;4.93;;;21.50;90.10;;;;;;4658264;30;20053;-82
2022/07/22 06:15:21;;;;;;;9.05;4.60;;;21.70;87.80;;;;;;4737511;24;20488;-83
2022/07/22 06:18:26;;;;;;;9.65;4.97;;;23.70;89.30;;;;;;4668184;30;20038;-82
2022/07/22 06:21:20;;;;;;;8.63;4.85;;;22.00;86.20;;;;;;4613075;30;20251;-83
2022/07/22 06:23:55;;;;;;;8.32;4.20;;;22.20;86.80;;;;;;4598704;31;20310;-82
2022/07/22 06:26:24;;;;;;;10.43;4.80;;;22.10;87.40;;;;;;4598483;31;20641;-83
2022/07/22 06:28:50;;;;;;;11.82;4.78;;;22.20;86.50;;;;;;4618975;24;20524;-82
2022/07/22 06:31:16;;;;;;;11.13;5.47;;;22.30;85.60;;;;;;4670057;30;20176;-83
2022/07/22 06:33:42;;;;;;;10.18;5.07;;;22.50;84.90;;;;;;4670467;30;20691;-83
2022/07/22 06:36:21;;;;;;;10.23;4.50;;;22.60;84.50;;;;;;4670359;30;20129;-84
2022/07/22 06:39:23;;;;;;;9.40;5.43;;;22.80;84.10;;;;;;4669787;30;20338;-83
2022/07/22 06:42:41;;;;;;;11.93;5.53;;;26.40;85.70;;;;;;4669017;30;20176;-82
2022/07/22 06:49:05;;;;;;;11.85;5.47;;;24.30;82.90;;;;;;4675409;24;20621;-85
2022/07/22 06:52:02;;;;;;;8.63;4.82;;;21.90;80.90;;;;;;4667852;30;20505;-81
2022/07/22 06:54:36;;;;;;;12.15;5.85;;;23.90;81.70;;;;;;4668865;30;20044;-82
2022/07/22 07:06:45;;;;;;;10.80;5.65;;;23.90;79.30;;;;;;5430798;24;20057;-82
2022/07/22 07:12:37;;;;;;;8.77;4.85;;;25.20;80.30;;;;;;4850845;24;20651;-84
2022/07/22 07:15:38;;;;;;;14.50;5.93;;;24.00;79.00;;;;;;5016609;24;20364;-84
2022/07/22 07:21:27;;;;;;;10.10;4.75;;;24.50;76.30;;;;;;4672418;24;20057;-83
2022/07/22 07:26:35;;;;;;;8.75;4.45;;;24.80;75.90;;;;;;4981929;24;20075;-82
2022/07/22 07:29:06;;;;;;;10.05;4.72;;;25.00;73.90;;;;;;4666472;30;20132;-82
2022/07/22 07:31:41;;;;;;;7.28;3.60;;;25.10;72.90;;;;;;4673216;24;20574;-84
2022/07/22 07:34:26;;;;;;;7.90;4.57;;;25.30;73.10;;;;;;4666672;30;20038;-83
2022/07/22 07:37:35;;;;;;;8.73;4.18;;;25.20;74.20;;;;;;4667849;30;20121;-84
2022/07/22 07:40:20;;;;;;;8.20;3.95;;;26.90;73.60;;;;;;4613657;30;20579;-82
2022/07/22 07:42:49;;;;;;;9.10;3.90;;;25.60;72.80;;;;;;4614282;31;20048;-84
2022/07/22 07:45:15;;;;;;;8.10;4.15;;;25.90;71.60;;;;;;4613923;30;20048;-84
2022/07/22 07:47:59;;;;;;;8.93;4.55;;;26.00;69.00;;;;;;4759213;24;20016;-84
2022/07/22 07:50:26;;;;;;;10.25;4.45;;;25.90;70.30;;;;;;4649832;30;20155;-84
2022/07/22 07:53:04;;;;;;;8.05;3.72;;;26.20;69.20;;;;;;4649758;30;20073;-83
2022/07/22 07:55:38;;;;;;;8.20;4.35;;;26.60;70.20;;;;;;4650170;30;20053;-83
2022/07/22 08:01:10;;;;;;;9.35;4.15;;;26.70;67.30;;;;;;4639254;28;20058;-85
2022/07/22 08:07:51;;;;;;;9.63;3.90;;;26.80;66.00;;;;;;4650062;30;20056;-84
2022/07/22 08:10:44;;;;;;;12.88;4.90;;;26.40;65.10;;;;;;4662172;30;20563;-82
2022/07/22 08:19:45;;;;;;;8.70;4.75;;;28.30;64.20;;;;;;4761945;24;20148;-84
2022/07/22 08:22:14;;;;;;;11.82;4.47;;;27.90;62.30;;;;;;4666252;30;20565;-82
2022/07/22 08:24:40;;;;;;;9.25;4.68;;;27.70;62.30;;;;;;4667223;30;20080;-83
2022/07/22 08:37:45;;;;;;;10.07;4.40;;;;;;;;;;4678437;28;20065;-81
2022/07/22 08:40:38;;;;;;;7.03;3.75;;;29.00;58.60;;;;;;4684262;30;20095;-82
2022/07/22 09:00:22;;;;;;;9.90;4.28;;;29.50;58.40;;;;;;4651367;30;20435;-81
2022/07/22 09:02:57;;;;;;;10.55;4.03;;;29.30;57.60;;;;;;4664312;30;20054;-82
2022/07/22 09:05:58;;;;;;;9.18;4.18;;;28.80;57.40;;;;;;4653006;30;20054;-81
2022/07/22 09:35:07;;;;;;;8.60;4.70;;;30.30;56.20;;;;;;4667887;30;20086;-82
2022/07/22 09:58:17;;;;;;;9.55;5.28;;;32.10;54.90;;;;;;4667234;30;20302;-82
2022/07/22 10:00:43;;;;;;;8.35;4.50;;;32.30;54.70;;;;;;4683811;30;20045;-82
2022/07/22 10:03:19;;;;;;;8.68;5.18;;;32.60;54.10;;;;;;4682553;30;20085;-84
2022/07/22 10:05:46;;;;;;;12.45;5.03;;;32.90;53.60;;;;;;4682390;30;20479;-83
2022/07/22 10:26:21;;;;;;;8.50;4.82;;;33.50;51.50;;;;;;3869422;24;20371;-83
2022/07/22 10:32:30;;;;;;;11.02;5.65;;;33.70;50.40;;;;;;5037477;24;20061;-82
2022/07/22 10:35:06;;;;;;;;;;;33.00;51.10;;;;;;4647766;30;20055;-84
2022/07/22 10:41:10;;;;;;;9.27;4.70;;;32.60;48.60;;;;;;4648502;30;20430;-83
2022/07/22 10:47:31;;;;;;;8.32;3.90;;;34.40;49.00;;;;;;4648442;30;20064;-83
2022/07/22 11:17:35;;;;;;;7.60;3.25;;;36.60;44.90;;;;;;4668005;30;20059;-83
2022/07/22 11:25:34;;;;;;;8.00;3.67;;;36.40;43.40;;;;;;4668265;24;20073;-83
2022/07/22 11:49:42;;;;;;;7.05;3.42;;;38.70;41.00;;;;;;4888018;24;20493;-83
2022/07/22 11:55:38;;;;;;;6.30;2.92;;;38.90;38.90;;;;;;4775173;24;20462;-82
2022/07/22 12:00:49;;;;;;;7.00;2.95;;;39.30;39.40;;;;;;4022879;24;20378;-83
2022/07/22 12:13:04;;;;;;;5.88;3.00;;;40.30;38.30;;;;;;4643000;30;20339;-81
2022/07/22 12:33:58;;;;;;;8.70;3.30;;;40.90;36.60;;;;;;4706240;24;20187;-83
2022/07/22 12:51:44;;;;;;;6.13;3.00;;;43.20;36.60;;;;;;4615911;30;20663;-82
2022/07/22 13:10:58;;;;;;;7.13;3.65;;;42.50;35.20;;;;;;4670084;30;20291;-82
2022/07/22 13:18:35;;;;;;;8.43;3.40;;;42.30;35.30;;;;;;4683110;24;20085;-82
2022/07/22 13:21:34;;;;;;;5.68;2.75;;;42.30;35.90;;;;;;4669281;30;20073;-81
2022/07/22 13:24:35;;;;;;;6.20;3.42;;;42.70;35.60;;;;;;4670212;30;20111;-84
2022/07/22 13:27:17;;;;;;;8.73;3.63;;;44.90;36.70;;;;;;4615371;31;20440;-83
2022/07/22 13:37:59;;;;;;;7.40;4.05;;;42.70;35.20;;;;;;4925925;24;20069;-82
2022/07/22 13:40:28;;;;;;;6.63;3.90;;;43.50;35.60;;;;;;4667815;30;20100;-81
2022/07/22 13:46:19;;;;;;;13.43;3.60;;;43.10;36.40;;;;;;4668840;30;20502;-81
2022/07/22 13:52:24;;;;;;;7.57;3.85;;;42.90;34.80;;;;;;4849630;24;20058;-81
2022/07/22 14:21:57;;;;;;;6.32;3.40;;;42.90;34.30;;;;;;4667221;30;20062;-82
2022/07/22 14:25:20;;;;;;;;;;;;;;;;;;;;;
2022/07/22 14:31:19;;;;;;;6.68;3.47;;;42.30;34.70;;;;;;4883995;24;20399;-84
2022/07/22 14:37:30;;;;;;;6.10;3.30;;;43.30;34.80;;;;;;4668447;30;20041;-82
2022/07/22 14:40:14;;;;;;;8.75;3.55;;;41.70;33.10;;;;;;4668298;30;20072;-80
2022/07/22 14:43:20;;;;;;;6.97;4.07;;;42.00;33.70;;;;;;4667142;30;20038;-81
2022/07/22 14:47:05;;;;;;;6.22;3.58;;;43.10;34.10;;;;;;4675757;24;21200;-81
2022/07/22 14:49:34;;;;;;;7.25;3.30;;;42.20;33.50;;;;;;4667011;30;20262;-80
2022/07/22 14:55:59;;;;;;;5.82;3.55;;;43.30;34.20;;;;;;4665043;30;20072;-81
2022/07/22 14:58:29;;;;;;;8.27;4.03;;;43.20;34.20;;;;;;4664895;30;20050;-80
2022/07/22 15:01:08;;;;;;;11.30;4.40;;;42.40;34.70;;;;;;4664767;30;20662;-84
2022/07/22 15:03:49;;;;;;;6.30;3.47;;;41.60;34.40;;;;;;4665180;30;20042;-82
2022/07/22 15:06:21;;;;;;;6.87;3.83;;;41.80;33.60;;;;;;4753134;24;20067;-83
2022/07/22 15:09:28;;;;;;;6.25;3.45;;;41.60;36.50;;;;;;4667736;30;20046;-83
2022/07/22 15:12:21;;;;;;;8.55;4.53;;;42.20;35.50;;;;;;4666042;30;20069;-83
2022/07/22 15:17:58;;;;;;;7.65;4.13;;;42.50;35.70;;;;;;4668160;30;20077;-82
2022/07/22 15:20:28;;;;;;;7.75;4.20;;;41.60;34.80;;;;;;4667724;30;20079;-82
2022/07/22 15:22:57;;;;;;;8.48;4.35;;;41.70;34.30;;;;;;4666035;30;20045;-82
2022/07/22 15:25:29;;;;;;;7.65;4.25;;;41.70;34.40;;;;;;4665473;30;20299;-82
2022/07/22 15:27:54;;;;;;;9.82;4.00;;;41.70;34.60;;;;;;4666263;30;20350;-83
2022/07/22 15:30:38;;;;;;;9.88;4.40;;;41.80;34.90;;;;;;4666199;30;20038;-82
2022/07/22 15:33:23;;;;;;;7.53;4.35;;;41.60;34.60;;;;;;4667575;30;20069;-82
2022/07/22 15:41:58;;;;;;;8.13;4.07;;;42.20;34.10;;;;;;3976819;28;20431;-82
2022/07/22 15:44:45;;;;;;;9.55;4.25;;;41.20;33.50;;;;;;4598609;31;20087;-82
2022/07/22 15:47:26;;;;;;;6.65;3.85;;;41.60;35.00;;;;;;4599412;31;20067;-82
2022/07/22 15:50:14;;;;;;;8.02;4.03;;;41.70;34.90;;;;;;4613519;31;20261;-82
2022/07/22 15:55:50;;;;;;;8.98;4.50;;;40.20;32.90;;;;;;5237399;24;20046;-82
2022/07/22 16:08:09;;;;;;;8.02;3.80;;;40.90;33.50;;;;;;4668075;30;20061;-82
2022/07/22 16:10:43;;;;;;;7.47;3.33;;;42.30;35.00;;;;;;4668118;30;20042;-82
2022/07/22 16:19:35;;;;;;;7.22;3.20;;;41.90;34.70;;;;;;4826788;24;20125;-83
2022/07/22 16:22:40;;;;;;;9.50;3.10;;;41.80;34.20;;;;;;5020394;24;20069;-83
2022/07/22 16:30:46;;;;;;;6.78;3.00;;;43.30;33.50;;;;;;4674531;24;20077;-82
2022/07/22 16:33:49;;;;;;;7.00;3.27;;;43.50;34.20;;;;;;4669607;30;20125;-83
2022/07/22 16:36:55;;;;;;;8.20;3.38;;;44.90;34.70;;;;;;4670201;30;20038;-81
2022/07/22 16:40:17;;;;;;;6.55;3.20;;;44.90;34.50;;;;;;4669569;30;20034;-81
2022/07/22 16:43:18;;;;;;;8.98;3.65;;;43.60;33.90;;;;;;4670937;30;20287;-83
2022/07/22 16:45:50;;;;;;;8.70;3.50;;;43.20;34.10;;;;;;4670482;30;20408;-83
2022/07/22 16:54:56;;;;;;;5.90;3.13;;;41.90;34.40;;;;;;4926557;24;20632;-81
2022/07/22 16:57:34;;;;;;;6.70;4.03;;;41.60;35.00;;;;;;4670857;30;20616;-82
2022/07/22 17:00:13;;;;;;;9.93;3.92;;;41.20;35.40;;;;;;4675999;24;20145;-83
2022/07/22 17:02:39;;;;;;;8.40;3.65;;;40.90;35.50;;;;;;4670651;30;20046;-84
2022/07/22 17:05:29;;;;;;;8.38;3.92;;;40.40;35.80;;;;;;4669312;30;20052;-82
2022/07/22 17:08:11;;;;;;;7.03;3.90;;;40.30;36.00;;;;;;4669597;30;20055;-83
2022/07/22 17:10:55;;;;;;;6.65;3.40;;;40.10;37.70;;;;;;4670247;30;20068;-84
2022/07/22 17:13:30;;;;;;;11.32;4.38;;;39.30;37.00;;;;;;4671151;30;20042;-83
2022/07/22 17:18:36;;;;;;;6.30;3.83;;;38.00;38.50;;;;;;4676206;24;20593;-82
2022/07/22 17:21:20;;;;;;;7.68;4.05;;;37.30;38.90;;;;;;4676652;24;20156;-82
2022/07/22 17:23:52;;;;;;;9.30;3.75;;;36.70;39.80;;;;;;4671694;30;20262;-81
2022/07/22 17:26:30;;;;;;;6.95;3.40;;;36.40;39.80;;;;;;4668875;30;20522;-84
2022/07/22 17:37:15;;;;;;;9.25;4.40;;;35.40;41.40;;;;;;4689999;24;20569;-83
2022/07/22 17:40:06;;;;;;;7.35;3.67;;;35.90;42.70;;;;;;4670479;30;20048;-82
2022/07/22 18:13:48;;;;;;;10.35;5.05;;;31.90;47.30;;;;;;4673827;24;20415;-82
2022/07/22 18:16:16;;;;;;;8.13;4.53;;;31.80;47.40;;;;;;4667965;30;20046;-82
2022/07/22 18:33:42;;;;;;;14.13;5.25;;;31.00;48.10;;;;;;3962882;24;20058;-84
2022/07/22 18:36:51;;;;;;;15.15;5.57;;;32.20;49.30;;;;;;5095244;24;20066;-84
2022/07/22 18:46:35;;;;;;;9.65;4.55;;;30.40;49.10;;;;;;4635582;30;20115;-84
2022/07/22 18:49:17;;;;;;;9.00;3.92;;;30.10;49.30;;;;;;4597769;31;20050;-85
2022/07/22 19:01:58;;;;;;;8.37;4.20;;;28.10;49.00;;;;;;4631069;30;20039;-81
2022/07/22 19:35:32;;;;;;;9.30;4.15;;;28.20;52.20;;;;;;5210435;24;20074;-85
2022/07/22 19:38:06;;;;;;;9.57;4.20;;;28.20;53.30;;;;;;4659622;30;20318;-84
2022/07/22 20:31:06;;;;;;;7.88;3.78;;;26.40;57.40;;;;;;1712756;24;20336;-81
2022/07/22 20:44:02;;;;;;;9.80;4.35;;;26.00;58.40;;;;;;4828900;24;20263;-82
2022/07/22 20:46:28;;;;;;;;;;;25.80;58.70;;;;;;4668327;30;20052;-83
2022/07/22 20:48:59;;;;;;;9.23;4.35;;;25.70;59.00;;;;;;4665671;30;19915;-83
2022/07/22 20:58:31;;;;;;;8.13;4.10;;;25.60;58.60;;;;;;4716721;24;20540;-84
2022/07/22 21:07:03;;;;;;;9.82;4.80;;;25.40;59.60;;;;;;4685813;24;20353;-82
2022/07/22 21:09:29;;;;;;;13.63;5.03;;;25.40;59.70;;;;;;4669490;30;20489;-82
2022/07/22 21:11:58;;;;;;;13.73;4.93;;;25.40;60.10;;;;;;4670474;30;20034;-83
2022/07/22 21:15:18;;;;;;;9.18;4.75;;;25.20;59.60;;;;;;4667567;30;20128;-82
2022/07/22 21:17:52;;;;;;;9.85;5.10;;;25.10;60.20;;;;;;4667511;30;20375;-82
2022/07/22 21:47:47;;;;;;;12.60;5.38;;;25.80;63.30;;;;;;4652522;30;20130;-83
2022/07/22 21:50:21;;;;;;;9.68;5.10;;;25.70;63.30;;;;;;4665724;30;20038;-81
2022/07/22 21:53:12;;;;;;;9.40;5.10;;;24.50;63.10;;;;;;4652915;30;20049;-83
2022/07/22 23:17:16;;;;;;;9.13;4.90;;;22.90;68.60;;;;;;2566664;24;20509;-83
